Time;durP1;ratioP1;P1;durP2;ratioP2;P2;SDS_P1;SDS_P2;PMS_P1;PMS_P2;Temp;Humidity;BMP_temperature;BMP_pressure;BME280_temperature;BME280_humidity;BME280_pressure;Samples;Min_cycle;Max_cycle;Signal;HPM_P1;HPM_P2
2022/09/06 00:04:33;;;;;;;1.20;0.77;;;;;;;19.35;100.00;98635.28;15302078;19;20042;-79
2022/09/06 00:09:40;;;;;;;0.82;0.70;;;;;;;19.31;100.00;98631.31;15281166;19;20010;-79
2022/09/06 00:14:44;;;;;;;1.08;0.80;;;;;;;19.23;100.00;98631.50;15285086;19;20368;-79
2022/09/06 00:19:49;;;;;;;2.13;0.70;;;;;;;19.20;100.00;98629.22;15295843;19;20020;-79
2022/09/06 00:24:57;;;;;;;1.25;0.70;;;;;;;19.17;100.00;98646.84;15298716;19;20015;-80
2022/09/06 00:30:03;;;;;;;0.60;0.60;;;;;;;19.11;100.00;98646.91;15294771;19;20022;-83
2022/09/06 00:35:09;;;;;;;1.02;0.70;;;;;;;19.06;100.00;98645.63;15340196;19;20036;-80
2022/09/06 00:40:16;;;;;;;1.20;0.55;;;;;;;19.01;100.00;98656.31;15309468;19;20089;-82
2022/09/06 00:45:21;;;;;;;0.45;0.40;;;;;;;18.95;100.00;98665.38;15280497;19;20015;-80
2022/09/06 00:50:28;;;;;;;0.68;0.50;;;;;;;18.87;100.00;98663.66;15290803;19;20011;-81
2022/09/06 00:55:35;;;;;;;0.95;0.52;;;;;;;18.84;100.00;98658.59;15314226;19;20038;-81
2022/09/06 01:00:40;;;;;;;0.45;0.45;;;;;;;18.81;100.00;98667.22;15316056;19;20101;-79
2022/09/06 01:06:00;;;;;;;0.68;0.50;;;;;;;18.70;100.00;98671.41;15319193;19;20013;-80
2022/09/06 01:11:45;;;;;;;0.52;0.52;;;;;;;18.61;100.00;98662.56;15317672;19;20029;-81
2022/09/06 01:17:05;;;;;;;0.65;0.65;;;;;;;18.51;100.00;98658.59;15313023;19;20284;-81
2022/09/06 01:22:23;;;;;;;0.95;0.60;;;;;;;18.50;100.00;98654.16;15314968;19;20018;-82
2022/09/06 01:27:55;;;;;;;1.23;0.63;;;;;;;18.47;100.00;98659.00;15317030;19;20062;-80
2022/09/06 01:33:08;;;;;;;0.65;0.65;;;;;;;18.42;100.00;98649.75;15325974;19;20022;-79
2022/09/06 01:38:13;;;;;;;1.73;0.77;;;;;;;18.38;100.00;98649.31;15321956;19;20352;-80
2022/09/06 01:43:25;;;;;;;0.85;0.80;;;;;;;18.34;100.00;98658.94;15321433;19;20014;-78
2022/09/06 01:48:41;;;;;;;0.90;0.80;;;;;;;18.31;100.00;98653.91;15303204;19;20011;-78
2022/09/06 01:54:02;;;;;;;2.55;0.80;;;;;;;18.28;100.00;98657.06;15303957;19;20006;-79
2022/09/06 01:59:33;;;;;;;0.93;0.80;;;;;;;18.18;100.00;98662.91;15313129;19;20011;-78
2022/09/06 02:04:45;;;;;;;0.80;0.80;;;;;;;18.15;100.00;98657.84;15292677;19;20010;-76
2022/09/06 02:09:55;;;;;;;1.02;0.90;;;;;;;18.07;100.00;98661.59;15282669;19;20010;-77
2022/09/06 02:15:07;;;;;;;0.98;0.90;;;;;;;18.05;100.00;98654.66;15286190;19;20010;-78
2022/09/06 02:20:17;;;;;;;1.17;0.77;;;;;;;17.94;100.00;98659.63;15289959;19;20017;-80
2022/09/06 02:25:26;;;;;;;2.90;1.27;;;;;;;17.89;100.00;98653.94;15282130;19;20351;-80
2022/09/06 02:30:34;;;;;;;2.50;1.73;;;;;;;17.85;100.00;98639.88;15289954;19;20051;-80
2022/09/06 02:35:45;;;;;;;4.35;2.25;;;;;;;17.79;100.00;98628.94;15292036;19;20354;-78
2022/09/06 02:40:51;;;;;;;4.03;2.25;;;;;;;17.71;100.00;98632.69;15301491;19;20059;-78
2022/09/06 02:45:58;;;;;;;3.53;2.20;;;;;;;17.68;100.00;98631.22;15298907;19;20017;-79
2022/09/06 02:51:05;;;;;;;2.83;2.53;;;;;;;17.69;100.00;98634.78;15291948;19;20021;-84
2022/09/06 02:56:10;;;;;;;3.75;2.90;;;;;;;17.65;100.00;98631.59;15294080;19;20011;-82
2022/09/06 03:01:18;;;;;;;4.65;3.28;;;;;;;17.49;100.00;98631.97;15305708;19;20142;-80
2022/09/06 03:06:23;;;;;;;3.58;3.20;;;;;;;17.31;100.00;98629.75;15315466;19;20017;-81
2022/09/06 03:11:28;;;;;;;3.85;3.20;;;;;;;17.21;100.00;98635.56;15306584;19;20108;-81
2022/09/06 03:16:37;;;;;;;4.57;3.20;;;;;;;17.19;100.00;98638.50;15293829;19;20085;-81
2022/09/06 03:21:42;;;;;;;3.70;3.10;;;;;;;17.20;100.00;98634.72;15294606;19;20011;-81
2022/09/06 03:26:51;;;;;;;4.53;2.88;;;;;;;17.17;100.00;98624.22;15339093;19;20032;-82
2022/09/06 03:31:58;;;;;;;2.92;2.60;;;;;;;17.10;100.00;98617.91;15303430;19;20022;-80
2022/09/06 03:37:03;;;;;;;3.47;3.00;;;;;;;17.05;100.00;98606.75;15284277;19;20014;-80
2022/09/06 03:42:11;;;;;;;3.38;3.08;;;;;;;17.02;100.00;98607.16;15321870;19;20018;-82
2022/09/06 03:47:18;;;;;;;3.92;3.08;;;;;;;16.97;100.00;98613.19;15347513;19;20036;-82
2022/09/06 03:52:23;;;;;;;3.25;2.70;;;;;;;16.94;100.00;98605.41;15297208;19;20011;-81
2022/09/06 03:57:28;;;;;;;3.53;2.80;;;;;;;16.89;100.00;98608.69;15288739;19;20017;-81
2022/09/06 04:02:35;;;;;;;3.38;2.50;;;;;;;16.90;100.00;98606.84;15289196;19;20033;-81
2022/09/06 04:07:40;;;;;;;2.97;2.65;;;;;;;16.87;100.00;98626.28;15284886;19;20046;-81
2022/09/06 04:12:45;;;;;;;3.40;2.40;;;;;;;16.84;100.00;98623.94;15295978;19;20038;-80
2022/09/06 04:17:53;;;;;;;3.35;2.47;;;;;;;16.75;100.00;98634.97;15289093;19;20030;-80
2022/09/06 04:22:57;;;;;;;3.30;2.70;;;;;;;16.68;100.00;98627.78;15293004;19;20026;-81
2022/09/06 04:28:02;;;;;;;3.70;2.95;;;;;;;16.58;100.00;98626.25;15288765;19;20022;-83
2022/09/06 04:33:09;;;;;;;5.32;3.42;;;;;;;16.51;100.00;98627.22;15303999;19;20015;-81
2022/09/06 04:38:14;;;;;;;3.28;2.80;;;;;;;16.48;100.00;98623.84;15300051;19;20018;-82
2022/09/06 04:43:19;;;;;;;5.05;2.92;;;;;;;16.47;100.00;98622.16;15299427;19;20235;-79
2022/09/06 04:48:26;;;;;;;4.70;3.30;;;;;;;16.43;100.00;98614.59;15283492;19;20050;-80
2022/09/06 04:53:31;;;;;;;4.10;3.00;;;;;;;16.43;100.00;98618.16;15283497;19;20057;-80
2022/09/06 04:58:36;;;;;;;3.95;2.65;;;;;;;16.48;100.00;98612.13;15289083;19;20404;-81
2022/09/06 05:03:44;;;;;;;3.33;2.47;;;;;;;16.53;100.00;98603.38;15288582;19;20018;-81
2022/09/06 05:08:49;;;;;;;2.70;2.40;;;;;;;16.54;100.00;98600.47;15286524;19;20495;-81
2022/09/06 05:13:54;;;;;;;2.53;2.20;;;;;;;16.59;100.00;98597.16;15293013;19;20017;-82
2022/09/06 05:19:01;;;;;;;3.05;2.20;;;;;;;16.66;100.00;98599.94;15293484;19;20015;-82
2022/09/06 05:24:06;;;;;;;2.25;1.90;;;;;;;16.74;100.00;98597.09;15296218;19;20070;-82
2022/09/06 05:29:11;;;;;;;3.28;1.92;;;;;;;16.81;100.00;98592.53;15288053;19;20534;-82
2022/09/06 05:34:18;;;;;;;2.63;2.00;;;;;;;16.89;100.00;98584.22;15287385;19;20019;-81
2022/09/06 05:39:23;;;;;;;2.85;1.73;;;;;;;16.97;100.00;98582.44;15301405;19;20523;-82
2022/09/06 05:44:28;;;;;;;1.88;1.67;;;;;;;17.04;100.00;98586.03;15312135;19;20014;-82
2022/09/06 05:49:35;;;;;;;2.60;1.65;;;;;;;17.12;100.00;98585.84;15304792;19;20014;-81
2022/09/06 05:54:40;;;;;;;2.25;2.05;;;;;;;17.21;100.00;98595.56;15306114;19;20538;-81
2022/09/06 05:59:45;;;;;;;4.00;1.80;;;;;;;17.30;100.00;98592.69;15298743;19;20018;-83
2022/09/06 06:04:53;;;;;;;2.75;1.80;;;;;;;17.39;100.00;98594.19;15292515;19;20022;-81
2022/09/06 06:09:58;;;;;;;2.38;2.00;;;;;;;17.49;100.00;98591.94;15291676;19;20448;-80
2022/09/06 06:15:04;;;;;;;2.20;2.00;;;;;;;17.61;100.00;98594.06;15294058;19;20018;-81
2022/09/06 06:20:12;;;;;;;2.58;2.17;;;;;;;17.70;100.00;98596.44;15293518;19;20022;-82
2022/09/06 06:25:21;;;;;;;4.47;2.08;;;;;;;17.84;100.00;98604.66;15293909;19;20042;-81
2022/09/06 06:30:26;;;;;;;2.08;1.90;;;;;;;17.92;100.00;98601.75;15292400;19;20078;-81
2022/09/06 06:35:33;;;;;;;2.20;2.00;;;;;;;18.04;100.00;98599.31;15292295;19;20373;-82
2022/09/06 06:40:46;;;;;;;4.22;2.03;;;;;;;18.18;100.00;98590.09;15288524;19;20013;-81
2022/09/06 06:45:51;;;;;;;2.78;1.95;;;;;;;18.31;100.00;98593.91;15294292;19;20019;-81
2022/09/06 06:50:59;;;;;;;2.97;2.10;;;;;;;18.43;100.00;98589.50;15297207;19;20042;-81
2022/09/06 06:56:15;;;;;;;4.60;1.90;;;;;;;18.58;100.00;98589.31;15301830;19;20018;-81
2022/09/06 07:01:21;;;;;;;2.78;2.00;;;;;;;18.75;100.00;98592.50;15301495;19;20035;-82
2022/09/06 07:06:30;;;;;;;2.00;1.80;;;;;;;18.97;100.00;98597.75;15305245;19;20498;-82
2022/09/06 07:11:55;;;;;;;1.70;1.60;;;;;;;19.18;100.00;98590.38;15297582;19;20030;-81
2022/09/06 07:17:00;;;;;;;1.80;1.70;;;;;;;19.32;100.00;98591.16;15310429;19;20011;-82
2022/09/06 07:22:13;;;;;;;2.15;1.50;;;;;;;19.44;100.00;98594.91;15364292;19;20025;-82
2022/09/06 07:27:18;;;;;;;2.42;1.40;;;;;;;19.54;100.00;98592.56;15307082;19;20014;-81
2022/09/06 07:32:42;;;;;;;1.75;1.48;;;;;;;19.65;100.00;98595.69;15297605;19;20751;-85
2022/09/06 07:37:56;;;;;;;3.45;1.50;;;;;;;19.79;100.00;98589.09;15301013;19;20050;-81
2022/09/06 07:43:01;;;;;;;1.55;1.30;;;;;;;19.96;100.00;98586.75;15301531;19;20018;-87
2022/09/06 07:48:06;;;;;;;2.70;1.30;;;;;;;20.19;100.00;98585.34;15301437;19;21256;-82
2022/09/06 07:53:13;;;;;;;3.25;1.30;;;;;;;20.41;100.00;98585.00;15308090;19;20018;-83
2022/09/06 07:58:26;;;;;;;2.20;1.30;;;;;;;20.61;100.00;98588.44;15304054;19;20014;-82
2022/09/06 08:03:32;;;;;;;2.13;1.27;;;;;;;20.94;100.00;98583.75;15309303;19;20010;-83
2022/09/06 08:08:39;;;;;;;2.40;1.20;;;;;;;21.18;100.00;98576.56;15312761;19;20007;-83
2022/09/06 08:14:01;;;;;;;1.10;1.00;;;;;;;21.32;100.00;98576.44;15317309;19;20035;-83
2022/09/06 08:19:07;;;;;;;1.23;1.10;;;;;;;21.38;100.00;98572.78;15309834;19;20010;-82
2022/09/06 08:24:15;;;;;;;3.53;1.23;;;;;;;21.47;100.00;98571.41;15294301;19;20018;-83
2022/09/06 08:29:21;;;;;;;1.23;1.13;;;;;;;21.58;100.00;98568.97;15303931;19;20011;-84
2022/09/06 08:34:26;;;;;;;1.73;1.30;;;;;;;21.63;100.00;98569.13;15297277;19;20047;-81
2022/09/06 08:39:33;;;;;;;1.23;1.13;;;;;;;21.67;100.00;98562.97;15302098;19;20031;-82
2022/09/06 08:44:41;;;;;;;1.95;1.30;;;;;;;21.71;100.00;98566.06;15303653;19;20042;-81
2022/09/06 08:50:05;;;;;;;1.23;1.13;;;;;;;21.80;100.00;98558.38;15306623;19;20010;-81
2022/09/06 08:55:27;;;;;;;1.83;1.20;;;;;;;21.82;100.00;98559.81;15326854;19;20003;-83
2022/09/06 09:00:33;;;;;;;1.35;1.10;;;;;;;21.83;100.00;98552.44;15314693;19;20018;-81
2022/09/06 09:05:40;;;;;;;2.75;1.30;;;;;;;21.83;100.00;98547.78;15302093;19;20015;-81
2022/09/06 09:10:50;;;;;;;1.38;1.27;;;;;;;21.86;100.00;98550.06;15310291;19;20038;-82
2022/09/06 09:15:55;;;;;;;1.20;1.10;;;;;;;21.95;100.00;98538.75;15324871;19;20006;-82
2022/09/06 09:21:00;;;;;;;1.23;1.10;;;;;;;22.01;100.00;98532.34;15326210;19;20019;-83
2022/09/06 09:26:12;;;;;;;1.30;1.20;;;;;;;22.06;100.00;98546.19;15328474;19;20041;-83
2022/09/06 09:31:34;;;;;;;1.75;1.23;;;;;;;22.13;100.00;98525.00;15334279;19;20034;-84
2022/09/06 09:36:39;;;;;;;1.70;1.30;;;;;;;22.12;100.00;98527.97;15370757;19;20010;-82
2022/09/06 09:41:52;;;;;;;1.80;1.20;;;;;;;22.14;100.00;98528.56;15356868;19;20014;-82
2022/09/06 09:46:57;;;;;;;1.40;1.30;;;;;;;22.10;100.00;98530.94;15341149;19;20014;-81
2022/09/06 09:52:11;;;;;;;3.47;1.30;;;;;;;22.08;100.00;98530.34;15315074;19;20010;-80
2022/09/06 09:57:21;;;;;;;2.25;1.30;;;;;;;22.12;100.00;98526.06;15303811;19;20014;-84
2022/09/06 10:02:29;;;;;;;5.45;1.42;;;;;;;22.11;100.00;98535.38;15331274;19;20026;-82
2022/09/06 10:07:43;;;;;;;1.52;1.20;;;;;;;21.70;100.00;98531.50;15328471;19;20042;-81
2022/09/06 10:13:08;;;;;;;1.58;1.45;;;;;;;21.38;100.00;98548.09;15325509;19;20034;-81
2022/09/06 10:18:19;;;;;;;1.92;1.30;;;;;;;20.95;100.00;98549.81;15321032;19;20514;-80
2022/09/06 10:23:28;;;;;;;;;;;;;;;20.67;100.00;98555.75;15322281;19;20845;-80
2022/09/06 10:29:02;;;;;;;3.33;1.08;;;;;;;20.16;100.00;98561.19;15313168;19;19915;-80
2022/09/06 10:34:28;;;;;;;2.03;0.88;;;;;;;19.89;100.00;98590.56;15317865;19;20010;-83
2022/09/06 10:39:44;;;;;;;5.20;1.10;;;;;;;19.51;100.00;98617.63;15312617;19;20035;-83
2022/09/06 10:45:04;;;;;;;2.30;1.17;;;;;;;18.92;100.00;98660.28;15313573;19;20014;-84
2022/09/06 10:50:09;;;;;;;4.20;1.55;;;;;;;17.86;100.00;98706.97;15316455;19;20039;-84
2022/09/06 10:55:19;;;;;;;17.67;2.70;;;;;;;17.61;100.00;98724.84;15309557;19;20364;-79
2022/09/06 11:00:26;;;;;;;5.55;2.40;;;;;;;17.34;100.00;98743.75;15305306;19;20018;-80
2022/09/06 11:05:36;;;;;;;3.85;2.08;;;;;;;17.31;100.00;98693.22;15315602;19;20030;-82
2022/09/06 11:10:46;;;;;;;1.20;0.80;;;;;;;17.23;100.00;98666.16;15314754;19;20019;-82
2022/09/06 11:16:01;;;;;;;1.95;1.13;;;;;;;17.19;100.00;98651.25;15313356;19;20018;-81
2022/09/06 11:21:27;;;;;;;5.35;1.30;;;;;;;17.08;100.00;98649.94;15316828;19;20362;-83
2022/09/06 11:26:35;;;;;;;2.60;1.30;;;;;;;17.03;100.00;98646.94;15319056;19;20014;-81
2022/09/06 11:31:54;;;;;;;1.98;1.20;;;;;;;17.02;100.00;98657.00;15312858;19;20011;-84
2022/09/06 11:37:31;;;;;;;1.10;1.00;;;;;;;17.03;100.00;98652.38;15344935;19;20010;-84
2022/09/06 11:42:59;;;;;;;1.83;1.10;;;;;;;17.11;100.00;98671.28;15327066;19;20038;-83
2022/09/06 11:48:37;;;;;;;2.00;1.08;;;;;;;17.21;100.00;98663.63;15286957;19;20023;-81
2022/09/06 11:54:07;;;;;;;1.35;1.00;;;;;;;17.29;100.00;98664.50;15294126;19;20039;-82
2022/09/06 11:59:28;;;;;;;1.20;1.10;;;;;;;17.35;100.00;98650.09;15298238;19;20007;-83
2022/09/06 12:05:06;;;;;;;1.77;1.10;;;;;;;17.46;100.00;98630.50;15301400;19;20601;-81
2022/09/06 12:10:51;;;;;;;1.58;1.10;;;;;;;17.69;100.00;98627.44;15305588;19;20027;-81
2022/09/06 12:15:56;;;;;;;2.28;1.30;;;;;;;17.93;100.00;98624.41;15309827;19;20505;-81
2022/09/06 12:21:05;;;;;;;1.52;1.15;;;;;;;18.21;100.00;98615.28;15312186;19;20014;-82
2022/09/06 12:26:13;;;;;;;2.15;0.70;;;;;;;18.46;100.00;98612.84;15306954;19;20022;-82
2022/09/06 12:31:31;;;;;;;1.10;0.80;;;;;;;18.68;100.00;98585.34;15306823;19;20067;-82
2022/09/06 12:36:36;;;;;;;2.25;0.80;;;;;;;18.92;100.00;98589.31;15304614;19;20027;-82
2022/09/06 12:41:47;;;;;;;1.48;0.88;;;;;;;19.20;100.00;98585.53;15316702;19;20038;-83
2022/09/06 12:46:53;;;;;;;1.63;0.73;;;;;;;19.53;100.00;98570.94;15319868;19;20035;-85
2022/09/06 12:52:09;;;;;;;1.35;0.70;;;;;;;19.97;100.00;98560.25;15316114;19;20038;-84
2022/09/06 12:57:20;;;;;;;0.55;0.55;;;;;;;20.35;100.00;98537.47;15312471;19;20015;-84
2022/09/06 13:02:39;;;;;;;1.27;1.00;;;;;;;20.73;100.00;98528.31;15316118;19;20038;-84
2022/09/06 13:07:48;;;;;;;3.58;1.10;;;;;;;21.09;100.00;98518.50;15303638;19;20002;-82
2022/09/06 13:13:00;;;;;;;1.52;1.10;;;;;;;21.46;100.00;98509.41;15315095;19;20054;-86
2022/09/06 13:18:22;;;;;;;0.90;0.90;;;;;;;21.77;100.00;98491.13;15315098;19;20021;-80
2022/09/06 13:23:27;;;;;;;0.93;0.90;;;;;;;22.12;100.00;98479.44;15323475;19;20030;-85
2022/09/06 13:28:36;;;;;;;1.08;0.80;;;;;;;22.43;100.00;98466.47;15311345;19;20055;-84
2022/09/06 13:33:42;;;;;;;1.20;0.80;;;;;;;22.71;100.00;98456.72;15311562;19;20010;-84
2022/09/06 13:38:48;;;;;;;1.08;1.00;;;;;;;22.98;100.00;98447.13;15304271;19;20002;-84
2022/09/06 13:44:03;;;;;;;1.58;1.10;;;;;;;23.13;100.00;98430.97;15312811;19;20019;-82
2022/09/06 13:49:07;;;;;;;1.10;1.00;;;;;;;23.50;100.00;98433.38;15315141;19;20034;-82
2022/09/06 13:54:14;;;;;;;3.25;1.00;;;;;;;23.87;100.00;98426.59;15308318;19;20047;-81
2022/09/06 13:59:23;;;;;;;1.45;1.00;;;;;;;24.27;100.00;98420.16;15322793;19;20015;-83
2022/09/06 14:04:28;;;;;;;1.77;1.20;;;;;;;24.55;100.00;98423.03;15324428;19;20019;-85
2022/09/06 14:09:32;;;;;;;6.53;1.20;;;;;;;24.99;100.00;98422.31;15304328;19;20042;-80
2022/09/06 14:14:40;;;;;;;2.33;1.00;;;;;;;25.44;100.00;98410.19;15278303;19;20014;-76
2022/09/06 14:19:45;;;;;;;2.72;1.02;;;;;;;25.88;100.00;98419.44;15286975;19;20010;-75
2022/09/06 14:24:49;;;;;;;1.58;0.90;;;;;;;26.06;100.00;98413.50;15289430;19;20010;-74
2022/09/06 14:29:57;;;;;;;2.40;0.90;;;;;;;26.28;100.00;98423.69;15282554;19;20370;-75
2022/09/06 14:35:04;;;;;;;1.00;0.77;;;;;;;26.68;100.00;98416.75;15288344;19;20038;-76
2022/09/06 14:40:09;;;;;;;0.73;0.70;;;;;;;27.10;100.00;98409.53;15285176;19;20018;-75
2022/09/06 14:45:18;;;;;;;0.60;0.60;;;;;;;27.20;100.00;98408.75;15277718;19;20455;-77
2022/09/06 14:50:23;;;;;;;0.70;0.70;;;;;;;27.40;100.00;98398.84;15287460;19;20036;-76
2022/09/06 14:55:27;;;;;;;1.42;0.70;;;;;;;27.44;100.00;98399.97;15287640;19;20022;-80
2022/09/06 15:00:35;;;;;;;0.60;0.60;;;;;;;27.53;100.00;98399.16;15282123;19;20475;-79
2022/09/06 15:05:40;;;;;;;1.05;0.70;;;;;;;27.71;100.00;98398.91;15283587;19;20042;-78
2022/09/06 15:10:54;;;;;;;1.13;0.60;;;;;;;27.64;100.00;98397.25;15282879;19;20483;-78
2022/09/06 15:16:01;;;;;;;1.05;0.60;;;;;;;27.86;100.00;98396.16;15279767;19;20031;-77
2022/09/06 15:21:13;;;;;;;1.13;0.70;;;;;;;27.89;100.00;98389.25;15291677;19;20015;-78
2022/09/06 15:26:18;;;;;;;0.75;0.70;;;;;;;28.02;100.00;98385.94;15317996;19;20049;-77
2022/09/06 15:31:26;;;;;;;0.90;0.60;;;;;;;28.08;100.00;98381.22;15314036;19;20018;-78
2022/09/06 15:36:32;;;;;;;0.85;0.70;;;;;;;27.97;100.00;98378.44;15286809;19;20014;-78
2022/09/06 15:41:39;;;;;;;1.27;0.60;;;;;;;28.13;100.00;98379.31;15283745;19;20421;-78
2022/09/06 15:46:49;;;;;;;0.85;0.63;;;;;;;28.08;100.00;98372.91;15289631;19;20006;-78
2022/09/06 15:51:59;;;;;;;;;;;;;;;27.93;100.00;98357.94;15326223;19;20037;-75
2022/09/06 15:57:04;;;;;;;1.33;0.67;;;;;;;27.80;100.00;98353.00;15322878;19;19925;-80
2022/09/06 16:02:12;;;;;;;1.33;0.70;;;;;;;27.76;100.00;98346.34;15279326;19;20501;-79
2022/09/06 16:07:17;;;;;;;2.33;0.70;;;;;;;27.68;100.00;98340.25;15280852;19;20479;-80
2022/09/06 16:12:21;;;;;;;1.63;0.63;;;;;;;27.70;100.00;98342.75;15286213;19;20044;-79
2022/09/06 16:17:30;;;;;;;0.60;0.60;;;;;;;27.60;100.00;98343.56;15278342;19;20011;-78
2022/09/06 16:22:34;;;;;;;0.75;0.60;;;;;;;27.62;100.00;98335.81;15281423;19;20132;-77
2022/09/06 16:27:39;;;;;;;0.65;0.60;;;;;;;27.52;100.00;98341.34;15284519;19;20486;-80
2022/09/06 16:32:47;;;;;;;1.20;0.80;;;;;;;27.47;100.00;98338.56;15281522;19;20018;-79
2022/09/06 16:37:51;;;;;;;1.00;0.60;;;;;;;27.42;100.00;98342.13;15285987;19;20043;-81
2022/09/06 16:42:56;;;;;;;1.23;0.70;;;;;;;27.25;100.00;98331.28;15286304;19;20046;-78
2022/09/06 16:48:03;;;;;;;0.55;0.50;;;;;;;27.15;100.00;98336.81;15280458;19;20014;-79
2022/09/06 16:53:08;;;;;;;0.70;0.60;;;;;;;26.92;100.00;98323.22;15271158;19;20014;-77
2022/09/06 16:58:13;;;;;;;1.85;0.73;;;;;;;26.70;100.00;98328.03;15278879;19;20478;-79
2022/09/06 17:03:20;;;;;;;1.08;0.60;;;;;;;26.57;100.00;98323.84;15277073;19;20356;-77
2022/09/06 17:08:25;;;;;;;2.00;0.70;;;;;;;26.34;100.00;98317.66;15271469;19;20013;-76
2022/09/06 17:13:30;;;;;;;1.35;0.70;;;;;;;26.06;100.00;98327.94;15272591;19;20087;-77
2022/09/06 17:18:38;;;;;;;0.65;0.50;;;;;;;25.49;100.00;98312.88;15270500;19;20038;-77
2022/09/06 17:23:43;;;;;;;0.70;0.70;;;;;;;25.14;100.00;98323.22;15268252;19;20047;-76
2022/09/06 17:28:47;;;;;;;1.67;0.70;;;;;;;24.64;100.00;98316.03;15259903;19;20023;-77
2022/09/06 17:33:55;;;;;;;2.45;0.70;;;;;;;24.19;100.00;98315.97;15278465;19;20018;-76
2022/09/06 17:39:05;;;;;;;2.95;0.80;;;;;;;23.70;100.00;98322.88;15288002;19;20344;-82
2022/09/06 17:44:15;;;;;;;1.23;0.88;;;;;;;23.23;100.00;98328.66;15303796;19;20035;-84
2022/09/06 17:49:24;;;;;;;1.50;1.00;;;;;;;22.85;100.00;98319.94;15303185;19;20010;-81
2022/09/06 17:54:31;;;;;;;1.83;0.80;;;;;;;22.46;100.00;98330.69;15290300;19;20039;-80
2022/09/06 17:59:36;;;;;;;3.33;0.80;;;;;;;22.07;100.00;98324.84;15287159;19;20015;-78
2022/09/06 18:04:44;;;;;;;1.35;0.80;;;;;;;21.78;100.00;98330.16;15291510;19;20019;-80
2022/09/06 18:09:49;;;;;;;1.75;0.60;;;;;;;21.55;100.00;98329.88;15287974;19;20014;-77
2022/09/06 18:14:53;;;;;;;0.70;0.52;;;;;;;21.28;100.00;98328.59;15281887;19;20091;-76
2022/09/06 18:20:00;;;;;;;0.60;0.60;;;;;;;21.07;100.00;98336.28;15281833;19;20006;-76
2022/09/06 18:25:07;;;;;;;0.75;0.70;;;;;;;20.88;100.00;98344.50;15284735;19;20022;-77
2022/09/06 18:30:13;;;;;;;0.70;0.70;;;;;;;20.73;100.00;98344.88;15276641;19;20368;-76
2022/09/06 18:35:21;;;;;;;1.10;0.80;;;;;;;20.56;100.00;98347.41;15280970;19;20066;-77
2022/09/06 18:40:25;;;;;;;1.23;0.80;;;;;;;20.39;100.00;98347.16;15283792;19;20014;-75
2022/09/06 18:45:33;;;;;;;2.97;0.90;;;;;;;20.24;100.00;98352.16;15273518;19;20006;-77
2022/09/06 18:50:41;;;;;;;1.65;0.80;;;;;;;20.11;100.00;98351.22;15274129;19;20024;-76
2022/09/06 18:55:46;;;;;;;0.80;0.80;;;;;;;19.99;100.00;98351.16;15275659;19;20624;-75
2022/09/06 19:00:51;;;;;;;1.15;0.80;;;;;;;19.91;100.00;98356.91;15282897;19;20014;-79
2022/09/06 19:06:03;;;;;;;0.75;0.70;;;;;;;19.84;100.00;98364.28;15290499;19;20017;-78
2022/09/06 19:11:10;;;;;;;0.85;0.80;;;;;;;19.78;100.00;98360.53;15296935;19;20010;-78
2022/09/06 19:16:15;;;;;;;0.60;0.60;;;;;;;19.61;100.00;98368.44;15292476;19;20471;-78
2022/09/06 19:21:24;;;;;;;1.55;0.70;;;;;;;19.51;100.00;98354.44;15310843;19;20010;-79
2022/09/06 19:26:32;;;;;;;1.10;0.70;;;;;;;19.43;100.00;98355.53;15311272;19;20054;-78
2022/09/06 19:31:39;;;;;;;0.73;0.73;;;;;;;19.33;100.00;98356.03;15296936;19;20010;-77
2022/09/06 19:36:47;;;;;;;1.15;0.70;;;;;;;19.30;100.00;98348.28;15295263;19;20485;-77
2022/09/06 19:41:52;;;;;;;1.13;0.70;;;;;;;19.25;100.00;98348.09;15298468;19;20018;-77
2022/09/06 19:46:58;;;;;;;1.65;0.80;;;;;;;19.14;100.00;98344.19;15298799;19;20078;-79
2022/09/06 19:52:08;;;;;;;0.77;0.70;;;;;;;19.06;100.00;98348.00;15272340;19;20054;-77
2022/09/06 19:57:13;;;;;;;1.15;0.80;;;;;;;19.00;100.00;98343.41;15293037;19;20010;-77
2022/09/06 20:02:17;;;;;;;0.80;0.80;;;;;;;18.97;100.00;98334.81;15300040;19;20013;-77
2022/09/06 20:07:25;;;;;;;0.93;0.70;;;;;;;18.93;100.00;98339.84;15286522;19;20034;-76
2022/09/06 20:12:31;;;;;;;1.00;0.90;;;;;;;18.90;100.00;98341.13;15348122;19;20409;-77
2022/09/06 20:17:36;;;;;;;2.35;0.90;;;;;;;18.86;100.00;98333.59;15303058;19;20011;-78
2022/09/06 20:22:46;;;;;;;1.35;0.75;;;;;;;18.81;100.00;98325.19;15290476;19;20062;-77
2022/09/06 20:27:51;;;;;;;1.00;0.90;;;;;;;18.78;100.00;98327.31;15282876;19;20021;-77
2022/09/06 20:32:56;;;;;;;0.82;0.80;;;;;;;18.70;100.00;98324.84;15289399;19;20015;-77
2022/09/06 20:38:03;;;;;;;1.88;1.00;;;;;;;18.69;100.00;98317.69;15277791;19;21052;-78
2022/09/06 20:43:08;;;;;;;1.63;1.00;;;;;;;18.67;100.00;98314.34;15288327;19;20052;-77
2022/09/06 20:48:13;;;;;;;1.08;0.88;;;;;;;18.69;100.00;98320.44;15284529;19;20039;-77
2022/09/06 20:53:20;;;;;;;0.90;0.90;;;;;;;18.67;100.00;98314.34;15289203;19;20011;-78
2022/09/06 20:58:25;;;;;;;1.55;1.10;;;;;;;18.61;100.00;98299.69;15289200;19;20014;-78
2022/09/06 21:03:29;;;;;;;2.45;1.00;;;;;;;18.64;100.00;98298.41;15289727;19;20073;-77
2022/09/06 21:08:38;;;;;;;1.98;1.00;;;;;;;18.65;100.00;98308.25;15297465;19;20097;-78
2022/09/06 21:13:50;;;;;;;1.10;1.00;;;;;;;18.61;100.00;98304.31;15298383;19;20022;-78
2022/09/06 21:18:56;;;;;;;1.25;1.02;;;;;;;18.62;100.00;98308.72;15299820;19;20014;-78
2022/09/06 21:24:05;;;;;;;3.03;0.95;;;;;;;18.60;100.00;98303.44;15303569;19;20021;-77
2022/09/06 21:29:17;;;;;;;1.23;1.10;;;;;;;18.58;100.00;98304.72;15340544;19;20040;-77
2022/09/06 21:34:21;;;;;;;1.38;1.20;;;;;;;18.50;100.00;98303.06;15326378;19;20018;-77
2022/09/06 21:39:28;;;;;;;1.85;1.30;;;;;;;18.46;100.00;98299.94;15301890;19;20039;-77
2022/09/06 21:44:33;;;;;;;1.52;1.10;;;;;;;18.39;100.00;98301.88;15291348;19;20015;-79
2022/09/06 21:49:38;;;;;;;1.92;1.23;;;;;;;18.39;100.00;98312.78;15302993;19;20013;-78
2022/09/06 21:54:45;;;;;;;1.35;1.00;;;;;;;18.37;100.00;98297.66;15301771;19;20137;-78
2022/09/06 21:59:50;;;;;;;1.38;1.25;;;;;;;18.33;100.00;98294.53;15297669;19;20010;-77
2022/09/06 22:04:55;;;;;;;2.40;1.35;;;;;;;18.34;100.00;98298.94;15297436;19;20393;-78
2022/09/06 22:10:02;;;;;;;1.73;1.10;;;;;;;18.34;100.00;98301.66;15293973;19;20034;-77
2022/09/06 22:15:10;;;;;;;1.30;1.20;;;;;;;18.31;100.00;98308.41;15288263;19;20011;-77
2022/09/06 22:20:14;;;;;;;1.88;1.40;;;;;;;18.30;100.00;98298.53;15291790;19;20019;-80
2022/09/06 22:25:22;;;;;;;4.18;1.20;;;;;;;18.29;100.00;98296.84;15300804;19;20010;-78
2022/09/06 22:30:27;;;;;;;1.52;1.23;;;;;;;18.30;100.00;98292.22;15304049;19;20086;-78
2022/09/06 22:35:32;;;;;;;1.17;1.10;;;;;;;18.29;100.00;98266.00;15302021;19;20014;-77
2022/09/06 22:40:39;;;;;;;1.80;1.20;;;;;;;18.27;100.00;98266.25;15302683;19;20015;-79
2022/09/06 22:45:44;;;;;;;1.17;1.08;;;;;;;18.23;100.00;98264.16;15294768;19;20042;-78
2022/09/06 22:50:55;;;;;;;1.38;1.20;;;;;;;18.16;100.00;98265.03;15288838;19;20027;-77
2022/09/06 22:56:02;;;;;;;1.63;1.30;;;;;;;18.14;100.00;98264.41;15301501;19;20015;-79
2022/09/06 23:01:09;;;;;;;2.00;1.40;;;;;;;18.12;100.00;98255.59;15304145;19;20010;-78
2022/09/06 23:06:14;;;;;;;1.27;1.17;;;;;;;18.09;100.00;98249.75;15295231;19;20011;-78
2022/09/06 23:11:21;;;;;;;2.08;1.40;;;;;;;18.10;100.00;98243.25;15300166;19;20006;-78
2022/09/06 23:16:27;;;;;;;2.55;1.30;;;;;;;18.08;100.00;98246.16;15302196;19;20065;-78
2022/09/06 23:21:32;;;;;;;1.30;1.20;;;;;;;18.07;100.00;98241.75;15291169;19;20626;-78
2022/09/06 23:26:40;;;;;;;3.13;1.40;;;;;;;18.06;100.00;98234.63;15302334;19;20038;-80
2022/09/06 23:31:45;;;;;;;1.92;1.30;;;;;;;18.04;100.00;98233.19;15297890;19;20014;-79
2022/09/06 23:36:51;;;;;;;2.92;1.58;;;;;;;18.01;100.00;98229.00;15289833;19;20015;-78
2022/09/06 23:42:00;;;;;;;2.10;1.45;;;;;;;17.95;100.00;98218.91;15290795;19;20014;-78